createdAt,value
2019-04-27T00:01:16.933Z,11.40
2019-04-27T00:03:58.289Z,11.40
2019-04-27T00:06:30.343Z,11.40
2019-04-27T00:09:17.983Z,11.40
2019-04-27T00:11:50.311Z,11.30
2019-04-27T00:14:21.276Z,11.20
2019-04-27T00:16:53.775Z,11.20
2019-04-27T00:19:35.253Z,11.10
2019-04-27T00:22:13.251Z,11.10
2019-04-27T00:24:44.195Z,11.10
2019-04-27T00:27:17.079Z,11.10
2019-04-27T00:29:46.067Z,11.10
2019-04-27T00:32:16.653Z,11.00
2019-04-27T00:34:48.817Z,11.00
2019-04-27T00:37:24.127Z,10.90
2019-04-27T00:40:05.231Z,10.90
2019-04-27T00:42:36.019Z,10.90
2019-04-27T00:45:08.006Z,10.80
2019-04-27T00:47:38.919Z,10.70
2019-04-27T00:50:09.521Z,10.70
2019-04-27T00:52:40.287Z,10.70
2019-04-27T00:55:13.086Z,10.60
2019-04-27T00:57:50.970Z,10.70
2019-04-27T01:00:39.604Z,10.70
2019-04-27T01:03:13.843Z,10.80
2019-04-27T01:05:44.384Z,10.70
2019-04-27T01:08:15.060Z,10.70
2019-04-27T01:10:45.574Z,10.70
2019-04-27T01:13:16.172Z,10.60
2019-04-27T01:15:46.990Z,10.60
2019-04-27T01:18:19.388Z,10.60
2019-04-27T01:20:50.814Z,10.50
2019-04-27T01:23:21.674Z,10.60
2019-04-27T01:25:59.841Z,10.60
2019-04-27T01:28:31.936Z,10.60
2019-04-27T01:31:03.964Z,10.70
2019-04-27T01:33:34.643Z,10.70
2019-04-27T01:36:06.066Z,10.70
2019-04-27T01:38:36.925Z,10.70
2019-04-27T01:41:06.472Z,10.70
2019-04-27T01:43:38.698Z,10.80
2019-04-27T01:46:09.147Z,10.80
2019-04-27T01:48:38.805Z,10.80
2019-04-27T01:51:09.233Z,10.80
2019-04-27T01:53:39.056Z,10.90
2019-04-27T01:56:09.231Z,10.90
2019-04-27T01:58:40.101Z,10.90
2019-04-27T02:01:22.574Z,10.90
2019-04-27T02:03:55.640Z,11.00
2019-04-27T02:06:26.556Z,11.10
2019-04-27T02:08:55.980Z,11.10
2019-04-27T02:11:25.323Z,11.10
2019-04-27T02:13:54.670Z,11.20
2019-04-27T02:16:24.110Z,11.20
2019-04-27T02:18:53.448Z,11.20
2019-04-27T02:21:22.805Z,11.30
2019-04-27T02:23:52.154Z,11.30
2019-04-27T02:26:23.118Z,11.20
2019-04-27T02:28:58.456Z,11.20
2019-04-27T02:31:33.509Z,11.20
2019-04-27T02:34:04.572Z,11.10
2019-04-27T02:36:33.938Z,11.10
2019-04-27T02:39:04.517Z,11.10
2019-04-27T02:41:34.423Z,11.00
2019-04-27T02:44:06.291Z,11.00
2019-04-27T02:46:35.710Z,11.00
2019-04-27T02:49:07.185Z,10.90
2019-04-27T02:51:40.618Z,10.90
2019-04-27T02:54:12.010Z,10.90
2019-04-27T02:56:40.593Z,10.90
2019-04-27T02:59:11.943Z,10.90
2019-04-27T03:01:50.389Z,10.90
2019-04-27T03:04:20.369Z,10.90
2019-04-27T03:06:50.049Z,10.90
2019-04-27T03:09:20.542Z,10.90
2019-04-27T03:11:50.335Z,10.90
2019-04-27T03:14:32.613Z,10.80
2019-04-27T03:17:09.887Z,10.80
2019-04-27T03:19:41.122Z,10.80
2019-04-27T03:22:15.105Z,10.80
2019-04-27T03:25:00.045Z,10.80
2019-04-27T03:27:31.111Z,10.80
2019-04-27T03:30:01.063Z,10.80
2019-04-27T03:32:32.024Z,10.80
2019-04-27T03:35:07.145Z,10.80
2019-04-27T03:37:36.593Z,10.80
2019-04-27T03:40:10.085Z,10.70
2019-04-27T03:42:40.321Z,10.70
2019-04-27T03:45:10.978Z,10.80
2019-04-27T03:47:41.061Z,10.70
2019-04-27T03:50:13.304Z,10.70
2019-04-27T03:52:44.286Z,10.70
2019-04-27T03:55:15.351Z,10.70
2019-04-27T03:58:02.748Z,10.70
2019-04-27T04:00:33.579Z,10.70
2019-04-27T04:03:02.917Z,10.70
2019-04-27T04:05:32.377Z,10.80
2019-04-27T04:08:02.920Z,10.80
2019-04-27T04:10:34.008Z,10.70
2019-04-27T04:13:17.095Z,10.70
2019-04-27T04:15:49.797Z,10.70
2019-04-27T04:18:20.782Z,10.60
2019-04-27T04:20:50.639Z,10.70
2019-04-27T04:23:20.623Z,10.70
2019-04-27T04:25:51.975Z,10.70
2019-04-27T04:28:21.423Z,10.60
2019-04-27T04:30:52.475Z,10.60
2019-04-27T04:33:21.876Z,10.70
2019-04-27T04:35:51.245Z,10.70
2019-04-27T04:38:20.840Z,10.70
2019-04-27T04:40:51.859Z,10.70
2019-04-27T04:43:39.942Z,10.60
2019-04-27T04:46:29.644Z,10.80
2019-04-27T04:49:00.209Z,10.70
2019-04-27T04:51:30.877Z,10.70
2019-04-27T04:54:00.268Z,10.70
2019-04-27T04:56:29.653Z,10.70
2019-04-27T04:59:00.069Z,10.60
2019-04-27T05:01:29.856Z,10.60
2019-04-27T05:03:59.534Z,10.60
2019-04-27T05:06:29.327Z,10.60
2019-04-27T05:08:59.477Z,10.50
2019-04-27T05:11:29.782Z,10.50
2019-04-27T05:14:01.560Z,10.50
2019-04-27T05:16:32.874Z,10.60
2019-04-27T05:19:03.415Z,10.50
2019-04-27T05:21:34.323Z,10.40
2019-04-27T05:24:03.759Z,10.40
2019-04-27T05:26:33.127Z,10.30
2019-04-27T05:29:03.833Z,10.40
2019-04-27T05:31:33.181Z,10.30
2019-04-27T05:34:06.654Z,10.40
2019-04-27T05:36:34.895Z,10.20
2019-04-27T05:39:06.772Z,10.30
2019-04-27T05:41:37.470Z,10.40
2019-04-27T05:44:12.658Z,10.30
2019-04-27T05:46:41.543Z,10.30
2019-04-27T05:49:29.473Z,10.30
2019-04-27T05:51:59.533Z,10.40
2019-04-27T05:54:30.027Z,10.40
2019-04-27T05:56:59.381Z,10.60
2019-04-27T05:59:29.808Z,10.50
2019-04-27T06:01:59.477Z,10.50
2019-04-27T06:04:30.527Z,10.50
2019-04-27T06:07:00.994Z,10.40
2019-04-27T06:09:30.530Z,10.40
2019-04-27T06:11:59.893Z,10.30
2019-04-27T06:14:29.390Z,10.40
2019-04-27T06:16:59.846Z,10.50
2019-04-27T06:19:29.283Z,10.50
2019-04-27T06:21:59.446Z,10.50
2019-04-27T06:24:32.187Z,10.40
2019-04-27T06:27:00.826Z,10.40
2019-04-27T06:29:30.219Z,10.50
2019-04-27T06:31:59.570Z,10.50
2019-04-27T06:34:30.978Z,10.50
2019-04-27T06:37:02.827Z,10.50
2019-04-27T06:39:32.200Z,10.70
2019-04-27T06:42:01.626Z,10.90
2019-04-27T06:44:30.982Z,10.80
2019-04-27T06:47:00.390Z,10.80
2019-04-27T06:49:29.763Z,10.80
2019-04-27T06:51:59.111Z,10.90
2019-04-27T06:54:28.986Z,11.00
2019-04-27T06:56:59.212Z,11.00
2019-04-27T06:59:29.070Z,10.90
2019-04-27T07:02:00.528Z,10.90
2019-04-27T07:04:29.650Z,11.00
2019-04-27T07:06:59.466Z,10.90
2019-04-27T07:09:30.110Z,10.90
2019-04-27T07:11:59.464Z,10.90
2019-04-27T07:14:29.459Z,10.80
2019-04-27T07:16:59.279Z,10.70
2019-04-27T07:19:30.231Z,10.70
2019-04-27T07:21:59.657Z,10.70
2019-04-27T07:24:29.296Z,10.80
2019-04-27T07:26:59.642Z,11.20
2019-04-27T07:29:30.235Z,11.40
2019-04-27T07:31:59.811Z,11.70
2019-04-27T07:34:30.541Z,11.90
2019-04-27T07:37:00.068Z,11.80
2019-04-27T07:39:29.524Z,11.60
2019-04-27T07:41:58.946Z,11.80
2019-04-27T07:44:32.920Z,11.80
2019-04-27T07:47:19.971Z,11.70
2019-04-27T07:49:49.762Z,11.80
2019-04-27T07:52:20.589Z,11.90
2019-04-27T07:54:50.193Z,12.10
2019-04-27T07:57:19.976Z,12.40
2019-04-27T07:59:50.211Z,12.40
2019-04-27T08:02:19.938Z,12.30
2019-04-27T08:04:50.544Z,12.20
2019-04-27T08:07:20.153Z,12.50
2019-04-27T08:09:49.826Z,12.70
2019-04-27T08:12:20.825Z,12.40
2019-04-27T08:14:52.246Z,12.10
2019-04-27T08:17:21.620Z,12.10
2019-04-27T08:19:50.972Z,12.20
2019-04-27T08:22:20.349Z,12.20
2019-04-27T08:24:49.909Z,12.50
2019-04-27T08:27:21.938Z,13.60
2019-04-27T08:30:09.465Z,13.80
2019-04-27T08:32:41.515Z,13.40
2019-04-27T08:35:13.311Z,13.70
2019-04-27T08:37:42.792Z,13.40
2019-04-27T08:40:12.494Z,13.30
2019-04-27T08:42:41.907Z,13.30
2019-04-27T08:45:11.508Z,13.30
2019-04-27T08:47:41.777Z,13.50
2019-04-27T08:50:12.526Z,13.40
2019-04-27T08:52:42.077Z,13.30
2019-04-27T08:55:12.001Z,13.60
2019-04-27T08:57:41.378Z,13.60
2019-04-27T09:00:11.077Z,13.30
2019-04-27T09:02:46.772Z,13.10
2019-04-27T09:05:11.775Z,13.20
2019-04-27T09:07:54.918Z,13.40
2019-04-27T09:10:38.799Z,13.50
2019-04-27T09:13:25.121Z,13.60
2019-04-27T09:16:01.953Z,13.60
2019-04-27T09:18:32.960Z,13.50
2019-04-27T09:21:04.887Z,13.60
2019-04-27T09:23:34.325Z,13.50
2019-04-27T09:26:03.688Z,13.40
2019-04-27T09:28:33.070Z,13.60
2019-04-27T09:31:02.416Z,14.00
2019-04-27T09:33:31.959Z,14.10
2019-04-27T09:36:01.379Z,14.10
2019-04-27T09:38:30.811Z,14.30
2019-04-27T09:41:01.700Z,14.80
2019-04-27T09:43:31.650Z,15.50
2019-04-27T09:46:01.021Z,15.50
2019-04-27T09:48:30.464Z,15.30
2019-04-27T09:50:59.836Z,15.10
2019-04-27T09:53:29.198Z,14.80
2019-04-27T09:55:58.599Z,14.60
2019-04-27T09:58:28.172Z,14.30
2019-04-27T10:00:57.591Z,14.50
2019-04-27T10:03:26.967Z,13.40
2019-04-27T10:05:57.091Z,13.30
2019-04-27T10:08:26.634Z,14.80
2019-04-27T10:10:56.712Z,14.70
2019-04-27T10:13:27.665Z,14.50
2019-04-27T10:15:57.198Z,14.50
2019-04-27T10:18:26.645Z,14.30
2019-04-27T10:20:59.710Z,15.90
2019-04-27T10:23:27.189Z,16.30
2019-04-27T10:25:57.527Z,16.20
2019-04-27T10:28:26.946Z,15.70
2019-04-27T10:30:56.389Z,15.70
2019-04-27T10:33:29.926Z,16.40
2019-04-27T10:36:00.311Z,16.70
2019-04-27T10:38:29.710Z,16.70
2019-04-27T10:41:00.717Z,16.90
2019-04-27T10:43:30.168Z,16.90
2019-04-27T10:45:59.523Z,17.30
2019-04-27T10:48:28.935Z,17.00
2019-04-27T10:50:58.315Z,16.70
2019-04-27T10:53:27.679Z,16.70
2019-04-27T10:55:57.138Z,16.50
2019-04-27T10:58:27.320Z,16.20
2019-04-27T11:00:58.665Z,16.20
2019-04-27T11:03:46.355Z,16.20
2019-04-27T11:06:33.537Z,15.60
2019-04-27T11:09:06.012Z,14.90
2019-04-27T11:11:37.488Z,14.40
2019-04-27T11:14:07.072Z,14.00
2019-04-27T11:16:37.773Z,15.30
2019-04-27T11:19:07.944Z,15.90
2019-04-27T11:21:37.379Z,15.60
2019-04-27T11:24:06.822Z,16.00
2019-04-27T11:26:37.878Z,15.70
2019-04-27T11:29:07.300Z,14.10
2019-04-27T11:31:36.734Z,14.10
2019-04-27T11:34:06.745Z,13.90
2019-04-27T11:36:38.029Z,14.20
2019-04-27T11:39:13.053Z,13.50
2019-04-27T11:41:42.467Z,13.80
2019-04-27T11:44:11.831Z,14.60
2019-04-27T11:46:41.233Z,15.20
2019-04-27T11:49:10.583Z,15.80
2019-04-27T11:51:42.577Z,16.10
2019-04-27T11:54:12.028Z,16.30
2019-04-27T11:56:41.383Z,16.10
2019-04-27T11:59:10.758Z,15.90
2019-04-27T12:01:40.188Z,16.20
2019-04-27T12:04:09.611Z,15.50
2019-04-27T12:06:39.017Z,16.10
2019-04-27T12:09:08.539Z,15.50
2019-04-27T12:11:38.164Z,14.90
2019-04-27T12:14:07.531Z,14.30
2019-04-27T12:16:36.899Z,14.30
2019-04-27T12:19:08.528Z,13.70
2019-04-27T12:21:37.972Z,12.20
2019-04-27T12:24:07.426Z,11.50
2019-04-27T12:26:38.453Z,11.30
2019-04-27T12:29:09.511Z,11.90
2019-04-27T12:31:43.875Z,12.90
2019-04-27T12:34:11.857Z,13.40
2019-04-27T12:36:41.314Z,13.80
2019-04-27T12:39:12.389Z,13.30
2019-04-27T12:41:42.430Z,13.40
2019-04-27T12:44:16.041Z,13.30
2019-04-27T12:46:45.598Z,13.60
2019-04-27T12:49:16.150Z,13.50
2019-04-27T12:51:45.773Z,14.40
2019-04-27T12:54:16.771Z,15.00
2019-04-27T12:57:08.330Z,14.50
2019-04-27T12:59:56.490Z,14.00
2019-04-27T13:02:28.243Z,14.90
2019-04-27T13:04:58.168Z,15.80
2019-04-27T13:07:29.099Z,15.30
2019-04-27T13:09:58.476Z,14.80
2019-04-27T13:12:27.890Z,14.70
2019-04-27T13:14:57.343Z,14.10
2019-04-27T13:17:26.745Z,13.80
2019-04-27T13:19:56.193Z,13.80
2019-04-27T13:22:25.661Z,13.40
2019-04-27T13:24:56.623Z,14.00
2019-04-27T13:27:26.960Z,14.40
2019-04-27T13:29:57.505Z,14.80
2019-04-27T13:32:26.957Z,14.80
2019-04-27T13:34:56.757Z,14.70
2019-04-27T13:37:43.052Z,15.30
2019-04-27T13:40:17.211Z,15.10
2019-04-27T13:42:53.728Z,14.90
2019-04-27T13:45:39.974Z,14.70
2019-04-27T13:48:11.211Z,14.80
2019-04-27T13:50:42.612Z,14.80
2019-04-27T13:53:12.035Z,14.50
2019-04-27T13:55:41.411Z,14.40
2019-04-27T13:58:12.319Z,14.30
2019-04-27T14:00:42.882Z,14.20
2019-04-27T14:03:12.307Z,13.90
2019-04-27T14:05:43.160Z,14.30
2019-04-27T14:08:12.623Z,15.10
2019-04-27T14:10:42.207Z,14.30
2019-04-27T14:13:11.599Z,14.50
2019-04-27T14:15:41.036Z,14.30
2019-04-27T14:18:10.413Z,14.10
2019-04-27T14:20:39.776Z,14.80
2019-04-27T14:23:18.650Z,14.90
2019-04-27T14:25:47.772Z,14.80
2019-04-27T14:28:18.331Z,15.40
2019-04-27T14:30:48.718Z,15.90
2019-04-27T14:33:18.653Z,15.30
2019-04-27T14:35:49.919Z,15.50
2019-04-27T14:38:20.576Z,15.50
2019-04-27T14:40:50.351Z,15.70
2019-04-27T14:43:21.018Z,15.40
2019-04-27T14:45:50.385Z,14.80
2019-04-27T14:48:19.774Z,15.10
2019-04-27T14:50:51.060Z,14.80
2019-04-27T14:53:20.270Z,14.70
2019-04-27T14:55:49.702Z,14.50
2019-04-27T14:58:19.416Z,14.30
2019-04-27T15:00:49.886Z,14.30
2019-04-27T15:03:19.452Z,14.30
2019-04-27T15:05:49.723Z,14.10
2019-04-27T15:08:21.474Z,14.40
2019-04-27T15:10:50.974Z,14.30
2019-04-27T15:13:20.451Z,14.10
2019-04-27T15:15:49.833Z,14.00
2019-04-27T15:18:19.806Z,14.00
2019-04-27T15:20:49.271Z,13.80
2019-04-27T15:23:20.075Z,13.50
2019-04-27T15:25:50.062Z,13.10
2019-04-27T15:28:24.075Z,12.90
2019-04-27T15:30:59.419Z,12.90
2019-04-27T15:33:51.427Z,12.60
2019-04-27T15:36:36.280Z,12.90
2019-04-27T15:39:18.322Z,13.50
2019-04-27T15:41:49.367Z,13.00
2019-04-27T15:44:20.473Z,13.00
2019-04-27T15:46:50.167Z,13.10
2019-04-27T15:49:19.648Z,13.50
2019-04-27T15:51:50.675Z,13.50
2019-04-27T15:54:22.420Z,13.40
2019-04-27T15:56:51.199Z,13.20
2019-04-27T15:59:25.793Z,13.00
2019-04-27T16:01:55.215Z,13.10
2019-04-27T16:04:24.755Z,12.90
2019-04-27T16:06:55.927Z,13.00
2019-04-27T16:09:28.326Z,13.50
2019-04-27T16:12:09.639Z,13.80
2019-04-27T16:14:30.472Z,13.50
2019-04-27T16:17:02.931Z,13.10
2019-04-27T16:19:30.892Z,13.00
2019-04-27T16:22:00.292Z,13.00
2019-04-27T16:24:29.644Z,13.30
2019-04-27T16:26:59.223Z,14.00
2019-04-27T16:29:31.676Z,14.90
2019-04-27T16:32:02.776Z,14.50
2019-04-27T16:34:37.863Z,13.70
2019-04-27T16:37:05.387Z,14.20
2019-04-27T16:39:34.799Z,14.20
2019-04-27T16:42:10.005Z,14.90
2019-04-27T16:44:40.057Z,13.60
2019-04-27T16:47:12.553Z,13.40
2019-04-27T16:49:44.227Z,13.40
2019-04-27T16:52:16.020Z,13.70
2019-04-27T16:54:42.585Z,13.60
2019-04-27T16:57:11.942Z,13.70
2019-04-27T16:59:46.152Z,15.90
2019-04-27T17:02:12.729Z,14.60
2019-04-27T17:04:45.130Z,13.40
2019-04-27T17:07:13.277Z,13.00
2019-04-27T17:09:46.221Z,12.90
2019-04-27T17:12:13.694Z,13.20
2019-04-27T17:15:05.919Z,13.00
2019-04-27T17:17:50.858Z,12.70
2019-04-27T17:20:21.222Z,12.50
2019-04-27T17:22:53.267Z,12.50
2019-04-27T17:25:23.254Z,12.40
2019-04-27T17:27:57.871Z,12.80
2019-04-27T17:30:25.278Z,12.60
2019-04-27T17:33:01.212Z,12.40
2019-04-27T17:35:29.898Z,12.70
2019-04-27T17:37:59.619Z,12.70
2019-04-27T17:40:29.976Z,12.40
2019-04-27T17:43:06.921Z,12.40
2019-04-27T17:45:36.355Z,12.30
2019-04-27T17:48:07.410Z,12.00
2019-04-27T17:50:36.405Z,11.90
2019-04-27T17:53:05.862Z,11.90
2019-04-27T17:55:36.296Z,11.70
2019-04-27T17:58:06.672Z,11.70
2019-04-27T18:00:41.647Z,11.70
2019-04-27T18:03:08.275Z,11.80
2019-04-27T18:05:39.395Z,11.80
2019-04-27T18:08:13.626Z,11.70
2019-04-27T18:10:40.915Z,11.80
2019-04-27T18:13:10.272Z,12.00
2019-04-27T18:15:39.693Z,11.90
2019-04-27T18:18:22.818Z,11.90
2019-04-27T18:20:50.775Z,12.00
2019-04-27T18:23:24.462Z,12.00
2019-04-27T18:26:01.667Z,12.00
2019-04-27T18:28:32.667Z,12.00
2019-04-27T18:31:03.668Z,11.90
2019-04-27T18:33:37.178Z,11.90
2019-04-27T18:36:11.717Z,11.80
2019-04-27T18:38:37.288Z,11.80
2019-04-27T18:41:11.485Z,11.90
2019-04-27T18:43:45.809Z,11.80
2019-04-27T18:46:09.842Z,11.80
2019-04-27T18:48:44.731Z,11.70
2019-04-27T18:51:20.669Z,11.70
2019-04-27T18:53:54.049Z,11.70
2019-04-27T18:56:21.192Z,11.70
2019-04-27T18:58:50.745Z,11.70
2019-04-27T19:01:22.816Z,11.60
2019-04-27T19:03:53.705Z,11.60
2019-04-27T19:06:23.250Z,11.60
2019-04-27T19:08:52.593Z,11.50
2019-04-27T19:11:21.932Z,11.40
2019-04-27T19:13:51.379Z,11.30
2019-04-27T19:16:22.346Z,11.20
2019-04-27T19:18:51.929Z,11.10
2019-04-27T19:21:21.387Z,11.10
2019-04-27T19:23:50.863Z,11.10
2019-04-27T19:26:30.767Z,10.90
2019-04-27T19:29:10.314Z,10.60
2019-04-27T19:31:41.359Z,10.50
2019-04-27T19:34:10.713Z,10.30
2019-04-27T19:36:40.207Z,10.20
2019-04-27T19:39:13.956Z,10.10
2019-04-27T19:41:56.685Z,10.10
2019-04-27T19:44:15.716Z,10.00
2019-04-27T19:46:46.469Z,9.90
2019-04-27T19:49:15.836Z,9.70
2019-04-27T19:51:45.197Z,9.60
2019-04-27T19:54:14.575Z,9.60
2019-04-27T19:56:43.938Z,9.60
2019-04-27T19:59:18.760Z,9.60
2019-04-27T20:01:50.020Z,9.50
2019-04-27T20:04:26.999Z,9.60
2019-04-27T20:06:56.463Z,9.40
2019-04-27T20:09:31.925Z,9.60
2019-04-27T20:12:02.904Z,9.50
2019-04-27T20:14:34.407Z,9.60
2019-04-27T20:17:03.817Z,9.60
2019-04-27T20:19:33.164Z,9.50
2019-04-27T20:22:02.581Z,9.50
2019-04-27T20:24:33.593Z,9.50
2019-04-27T20:27:04.192Z,9.60
2019-04-27T20:29:34.740Z,9.70
2019-04-27T20:32:04.212Z,9.80
2019-04-27T20:34:33.563Z,9.80
2019-04-27T20:37:02.960Z,9.80
2019-04-27T20:39:32.463Z,10.00
2019-04-27T20:42:01.914Z,9.90
2019-04-27T20:44:31.323Z,9.80
2019-04-27T20:47:01.279Z,9.70
2019-04-27T20:49:30.828Z,9.70
2019-04-27T20:52:01.827Z,9.60
2019-04-27T20:54:32.619Z,9.50
2019-04-27T20:57:02.214Z,9.60
2019-04-27T20:59:34.628Z,9.60
2019-04-27T21:02:24.139Z,9.40
2019-04-27T21:04:54.995Z,9.30
2019-04-27T21:07:41.334Z,9.30
2019-04-27T21:10:11.039Z,9.50
2019-04-27T21:12:41.596Z,9.50
2019-04-27T21:15:12.931Z,9.40
2019-04-27T21:17:42.545Z,9.30
2019-04-27T21:20:13.275Z,9.30
2019-04-27T21:22:42.795Z,9.30
2019-04-27T21:25:13.291Z,9.30
2019-04-27T21:27:42.733Z,9.30
2019-04-27T21:30:12.166Z,9.30
2019-04-27T21:32:41.552Z,9.40
2019-04-27T21:35:11.395Z,9.30
2019-04-27T21:37:40.954Z,9.30
2019-04-27T21:40:18.170Z,9.40
2019-04-27T21:42:47.776Z,9.40
2019-04-27T21:45:18.452Z,9.40
2019-04-27T21:47:48.219Z,9.40
2019-04-27T21:50:20.615Z,9.40
2019-04-27T21:52:58.339Z,9.40
2019-04-27T21:55:30.830Z,9.60
2019-04-27T21:58:01.479Z,9.50
2019-04-27T22:00:38.833Z,9.50
2019-04-27T22:03:11.414Z,9.40
2019-04-27T22:05:41.703Z,9.40
2019-04-27T22:08:11.685Z,9.40
2019-04-27T22:10:41.596Z,9.50
2019-04-27T22:13:10.983Z,9.50
2019-04-27T22:15:41.652Z,9.60
2019-04-27T22:18:11.190Z,9.60
2019-04-27T22:20:42.703Z,9.50
2019-04-27T22:23:19.430Z,9.50
2019-04-27T22:25:48.816Z,9.60
2019-04-27T22:28:18.251Z,9.60
2019-04-27T22:30:47.623Z,9.60
2019-04-27T22:33:16.959Z,9.60
2019-04-27T22:35:46.327Z,9.60
2019-04-27T22:38:15.845Z,9.70
2019-04-27T22:41:02.857Z,9.80
2019-04-27T22:43:44.084Z,9.80
2019-04-27T22:46:21.761Z,9.90
2019-04-27T22:48:51.698Z,9.90
2019-04-27T22:51:21.370Z,10.00
2019-04-27T22:53:51.294Z,10.00
2019-04-27T22:56:24.976Z,10.00
2019-04-27T22:59:03.588Z,10.00
2019-04-27T23:01:36.235Z,10.10
2019-04-27T23:04:13.145Z,10.00
2019-04-27T23:06:42.518Z,10.00
2019-04-27T23:09:12.558Z,9.90
2019-04-27T23:11:42.155Z,9.90
2019-04-27T23:14:11.520Z,9.90
2019-04-27T23:16:42.499Z,10.00
2019-04-27T23:19:12.855Z,10.00
2019-04-27T23:21:42.232Z,9.90
2019-04-27T23:24:11.670Z,9.90
2019-04-27T23:26:41.098Z,9.90
2019-04-27T23:29:15.620Z,9.80
2019-04-27T23:31:43.172Z,9.80
2019-04-27T23:34:12.522Z,9.80
2019-04-27T23:36:44.150Z,9.80
2019-04-27T23:39:13.112Z,9.80
2019-04-27T23:41:42.463Z,9.90
2019-04-27T23:44:11.821Z,9.80
2019-04-27T23:46:41.599Z,9.70
2019-04-27T23:49:12.159Z,9.50
2019-04-27T23:51:52.173Z,9.20
2019-04-27T23:54:21.571Z,9.00
2019-04-27T23:56:51.874Z,8.80
2019-04-27T23:59:25.025Z,8.70
